Nicholville, NY (12965)

9:39 AM EST on December 22, 2014 (GMT -0500)
Nichols Road (Buckton) | Change Station
CLOSE
Current Station
Personal Weather Station
Location: Winthrop, NY
Elevation: 453 ft
Nearby Weather Stations

Elev 453 ft 44.73 °N, 74.78 °W | Updated 3 minutes ago

Mostly Cloudy
Mostly Cloudy
13.4 °F
Feels Like 13 °F
N
0.0
Wind Variable Wind from North
Gusts 0.0 mph

Today
High -- | Low -- °F
--% Chance of Precip.
Yesterday
High -- | Low -- °F
Precip. -- in
7:33 AM 4:21 PM
New Moon, 0% visible
Pressure 30.42 in
Visibility 5.0 miles
Clouds Overcast 2700 ft
Windchill 13 °F
Dew Point 11 °F
Humidity 90%
Rainfall 0.00 in
Snow Depth Not available.
UV 0.0 out of 12
Pollen .10 out of 12
Air Quality Not available.
Flu Activity Not available.
METAR KMSS 221353Z AUTO 07008KT 5SM BR OVC027 M08/M10 A3039 RMK AO2 SLP301 T10781100

More Conditions Fewer Conditions

Pressure 30.42 in
Visibility 5.0 miles
Clouds Overcast 2700 ft
Windchill 13 °F
Dew Point 11 °F
Humidity 90%
Rainfall 0.00 in
Snow Depth Not available.
UV 0.0 out of 12
Pollen .10 out of 12
Air Quality Not available.
Flu Activity Not available.
METAR KMSS 221353Z AUTO 07008KT 5SM BR OVC027 M08/M10 A3039 RMK AO2 SLP301 T10781100

More Conditions Fewer Conditions

10-Day Weather Forecast

Almanac

Astronomy

Dec. 22, 2014 Rise Set
Actual Time
Civil Twilight
Nautical Twilight
Astronomical Twilight
Moon
Length of Visible Light
Length of Day
Tomorrow will be .
, % of the Moon is Illuminated

Today's Extremes

State Highs State Lows

Community

WunderPhotos

Upload Photos

1,779,608 photos uploaded!

WunderBlogs® & News

Nearby

Air Quality

  Air Quality AQ Index Pollutant
Not available.

Snow Depth

Station Depth Elevation

Earthquake Activity

City Distance Mag. Time & Date
Minimum magnitude displayed is 2.5.

Coastal Water Temperatures

Place Temperature

Nearby Weather Stations